Tuckerman, AR (72473)

08:17 AM CST am 29. Januar 2015 (GMT -0600)
Newport | Change Station
CLOSE
Current Station
Flughafen
Location: Newport,
Höhe: 240 ft
Wetterstationen in der Umgebung

Höhe 240 ft 35.64 °N, 91.17 °W | Updated 21 minutes ago

Heiter
Heiter
49 °F
gefühlte 49 °F
N
4
Wind Wechselnd Wind aus West-Südwest

Heute
Max. -- | schwach -- °F
--% Regenrisiko
Gestern
Max. -- | schwach -- °F
Precip. -- inch
7:07 AM 5:28 PM
Zweites Viertel, 74% visible
Druck 30.05 inch
Sichtweite 10.0 Meilen
Wolken Heiter
Taupunkt 43 °F
Feuchtigkeit 80%
Regen 0.00 inch
Schneehöhe Nicht verfügbar..
UV 0 von 12
Pollen 5.90 von 12
Luftqualität Nicht verfügbar..
Flu Activity Nicht verfügbar..
METAR KM19 291356Z AUTO 25003KT 10SM CLR 09/06 A3005 RMK AO2 T00940061 SLP175

More Conditions Fewer Conditions

Druck 30.05 inch
Sichtweite 10.0 Meilen
Wolken Heiter
Taupunkt 43 °F
Feuchtigkeit 80%
Regen 0.00 inch
Schneehöhe Nicht verfügbar..
UV 0 von 12
Pollen 5.90 von 12
Luftqualität Nicht verfügbar..
Flu Activity Nicht verfügbar..
METAR KM19 291356Z AUTO 25003KT 10SM CLR 09/06 A3005 RMK AO2 T00940061 SLP175

More Conditions Fewer Conditions

10-Day Weather Forecast

Almanac

Astronomie

Jan. 29, 2015 Aufgang Untergang
Genaue Zeit
Bürgerliche Dämmerung
Nautische Dämmerung
Astronomische Dämmerung
Mond
Länge des sichtbaren Lichts
Tageslänge
Tomorrow will be .
, % of the Moon is Illuminated

Heutige Rekorde

State Highs State Lows

Community

WunderPhotos

Upload Photos

1,791,434 Fotos hochgeladen!

WunderBlogs® & News

Nearby

Luftqualität

  Luftqualität LQ Index Schadstoff
Not available.

Schneehöhe

Station Depth Höhe

Erdbebenaktivität

Stadt Distance Mag. Time & Date
Minimum magnitude displayed is 2.5.

küstennahe Wassertemperaturen

Ort Temperatur

Wetterstationen in der Umgebung